createdAt,value
2018-07-27T00:01:26.965Z,16.30
2018-07-27T00:06:10.686Z,16.07
2018-07-27T00:10:55.329Z,15.93
2018-07-27T00:15:39.026Z,15.93
2018-07-27T00:20:23.683Z,16.83
2018-07-27T00:25:07.469Z,15.33
2018-07-27T00:29:52.246Z,17.30
2018-07-27T00:34:35.810Z,17.10
2018-07-27T00:39:19.402Z,17.43
2018-07-27T00:44:02.860Z,18.50
2018-07-27T00:48:47.656Z,16.30
2018-07-27T00:53:31.261Z,16.67
2018-07-27T00:58:14.974Z,15.97
2018-07-27T01:02:58.565Z,17.17
2018-07-27T01:07:42.241Z,17.03
2018-07-27T01:12:25.813Z,17.30
2018-07-27T01:17:12.445Z,18.07
2018-07-27T01:21:55.757Z,16.93
2018-07-27T01:26:43.366Z,18.33
2018-07-27T01:31:26.908Z,17.13
2018-07-27T01:36:10.517Z,16.23
2018-07-27T01:40:54.110Z,18.67
2018-07-27T01:45:37.713Z,16.57
2018-07-27T01:50:22.532Z,17.73
2018-07-27T01:55:06.018Z,16.67
2018-07-27T01:59:50.573Z,16.93
2018-07-27T02:04:34.088Z,16.50
2018-07-27T02:09:21.546Z,16.17
2018-07-27T02:14:05.079Z,15.97
2018-07-27T02:18:48.766Z,17.10
2018-07-27T02:23:32.358Z,18.67
2018-07-27T02:28:19.593Z,18.13
2018-07-27T02:33:03.204Z,17.80
2018-07-27T02:37:47.985Z,17.97
2018-07-27T02:42:31.443Z,17.30
2018-07-27T02:47:15.021Z,17.07
2018-07-27T02:51:58.566Z,16.43
2018-07-27T02:56:42.391Z,17.73
2018-07-27T03:01:25.962Z,16.47
2018-07-27T03:06:09.571Z,16.50
2018-07-27T03:10:53.254Z,17.87
2018-07-27T03:15:36.991Z,16.43
2018-07-27T03:20:20.909Z,17.47
2018-07-27T03:25:04.566Z,16.67
2018-07-27T03:29:48.405Z,16.53
2018-07-27T03:34:31.844Z,17.50
2018-07-27T03:39:15.550Z,15.97
2018-07-27T03:43:59.054Z,15.07
2018-07-27T03:48:43.454Z,15.83
2018-07-27T03:53:27.007Z,14.73
2018-07-27T03:58:10.811Z,14.67
2018-07-27T04:02:54.404Z,14.93
2018-07-27T04:07:41.149Z,15.77
2018-07-27T04:12:24.582Z,15.57
2018-07-27T04:17:11.751Z,17.50
2018-07-27T04:21:55.390Z,16.33
2018-07-27T04:26:39.156Z,16.70
2018-07-27T04:31:22.810Z,15.93
2018-07-27T04:36:06.488Z,17.20
2018-07-27T04:40:50.090Z,17.57
2018-07-27T04:45:33.702Z,16.70
2018-07-27T04:50:17.664Z,16.57
2018-07-27T04:55:02.247Z,16.10
2018-07-27T04:59:48.944Z,16.27
2018-07-27T05:04:32.515Z,15.70
2018-07-27T05:09:22.411Z,13.97
2018-07-27T05:14:05.965Z,11.73
2018-07-27T05:18:49.936Z,12.77
2018-07-27T05:23:33.512Z,10.97
2018-07-27T05:28:18.084Z,11.93
2018-07-27T05:33:01.727Z,11.83
2018-07-27T05:37:46.481Z,11.83
2018-07-27T05:42:30.138Z,11.80
2018-07-27T05:47:13.820Z,12.17
2018-07-27T05:51:57.403Z,12.90
2018-07-27T05:56:41.320Z,12.30
2018-07-27T06:01:24.934Z,13.37
2018-07-27T06:06:08.713Z,12.27
2018-07-27T06:10:52.263Z,12.47
2018-07-27T06:15:35.815Z,14.93
2018-07-27T06:20:19.412Z,12.00
2018-07-27T06:25:02.989Z,11.80
2018-07-27T06:29:47.853Z,12.73
2018-07-27T06:34:32.030Z,12.40
2018-07-27T06:39:16.684Z,12.40
2018-07-27T06:44:00.189Z,11.70
2018-07-27T06:48:43.832Z,11.43
2018-07-27T06:53:27.698Z,11.13
2018-07-27T06:58:11.289Z,11.17
2018-07-27T07:02:54.857Z,13.67
2018-07-27T07:07:39.416Z,11.53
2018-07-27T07:12:22.965Z,11.90
2018-07-27T07:17:06.623Z,12.10
2018-07-27T07:21:50.169Z,11.57
2018-07-27T07:26:34.913Z,12.40
2018-07-27T07:31:19.367Z,13.20
2018-07-27T07:36:03.042Z,12.37
2018-07-27T07:40:46.545Z,12.57
2018-07-27T07:45:30.589Z,12.23
2018-07-27T07:50:14.257Z,11.23
2018-07-27T07:54:57.970Z,12.10
2018-07-27T07:59:41.532Z,10.73
2018-07-27T08:04:25.227Z,10.50
2018-07-27T08:09:10.348Z,10.13
2018-07-27T08:13:53.954Z,9.73
2018-07-27T08:18:37.656Z,9.67
2018-07-27T08:23:21.157Z,10.57
2018-07-27T08:28:19.041Z,10.00
2018-07-27T08:33:02.676Z,9.33
2018-07-27T08:37:49.680Z,9.93
2018-07-27T08:42:33.280Z,9.37
2018-07-27T08:47:20.424Z,9.67
2018-07-27T08:52:03.962Z,11.00
2018-07-27T08:56:51.644Z,57.63
2018-07-27T09:01:35.304Z,11.70
2018-07-27T09:06:19.171Z,9.50
2018-07-27T09:11:02.810Z,11.03
2018-07-27T09:15:49.763Z,8.83
2018-07-27T09:20:33.426Z,9.43
2018-07-27T09:25:21.129Z,9.23
2018-07-27T09:30:06.063Z,7.50
2018-07-27T09:34:49.752Z,8.27
2018-07-27T09:39:33.532Z,7.83
2018-07-27T09:44:17.800Z,7.00
2018-07-27T09:49:04.630Z,6.30
2018-07-27T09:53:50.463Z,6.97
2018-07-27T09:58:35.624Z,7.40
2018-07-27T10:03:19.941Z,9.07
2018-07-27T10:08:03.707Z,8.73
2018-07-27T10:12:48.160Z,8.63
2018-07-27T10:17:32.073Z,9.10
2018-07-27T10:22:15.542Z,7.63
2018-07-27T10:26:59.395Z,8.97
2018-07-27T10:31:42.923Z,8.53
2018-07-27T10:36:27.740Z,11.03
2018-07-27T10:41:11.375Z,10.23
2018-07-27T10:45:58.567Z,11.40
2018-07-27T10:50:42.651Z,10.77
2018-07-27T10:55:27.479Z,10.87
2018-07-27T11:00:18.727Z,12.27
2018-07-27T11:05:06.120Z,13.57
2018-07-27T11:09:50.017Z,11.87
2018-07-27T11:14:33.499Z,13.53
2018-07-27T11:19:17.220Z,12.73
2018-07-27T11:24:00.761Z,12.10
2018-07-27T11:28:44.910Z,11.17
2018-07-27T11:33:30.080Z,10.83
2018-07-27T11:38:13.900Z,12.63
2018-07-27T11:42:57.584Z,10.63
2018-07-27T11:47:41.513Z,9.10
2018-07-27T11:52:25.244Z,9.80
2018-07-27T11:57:08.983Z,10.23
2018-07-27T12:01:52.898Z,10.73
2018-07-27T12:06:37.832Z,11.53
2018-07-27T12:11:21.884Z,11.97
2018-07-27T12:16:07.616Z,11.90
2018-07-27T12:20:51.814Z,13.90
2018-07-27T12:25:35.501Z,13.43
2018-07-27T12:30:19.183Z,12.73
2018-07-27T12:35:03.820Z,14.83
2018-07-27T12:39:47.455Z,13.60
2018-07-27T12:44:30.947Z,12.83
2018-07-27T12:49:14.595Z,9.10
2018-07-27T12:53:58.277Z,10.83
2018-07-27T12:58:42.814Z,11.23
2018-07-27T13:03:26.401Z,13.00
2018-07-27T13:08:11.174Z,16.00
2018-07-27T13:12:54.727Z,15.77
2018-07-27T13:17:41.763Z,13.80
2018-07-27T13:22:26.219Z,11.73
2018-07-27T13:27:13.119Z,9.70
2018-07-27T13:31:58.277Z,8.40
2018-07-27T13:36:43.054Z,6.93
2018-07-27T13:41:26.725Z,4.37
2018-07-27T13:46:10.635Z,4.63
2018-07-27T13:50:54.405Z,5.27
2018-07-27T13:55:38.169Z,5.70
2018-07-27T14:00:21.785Z,5.03
2018-07-27T14:05:07.025Z,5.23
2018-07-27T14:09:50.715Z,6.00
2018-07-27T14:14:34.512Z,7.30
2018-07-27T14:19:18.874Z,7.07
2018-07-27T14:24:02.417Z,9.00
2018-07-27T14:28:46.201Z,9.73
2018-07-27T14:33:29.780Z,8.80
2018-07-27T14:38:13.635Z,7.07
2018-07-27T14:42:57.234Z,7.60
2018-07-27T14:47:41.168Z,7.03
2018-07-27T14:52:24.966Z,6.30
2018-07-27T14:57:09.370Z,5.90
2018-07-27T15:01:52.892Z,5.80
2018-07-27T15:06:37.512Z,7.00
2018-07-27T15:11:21.052Z,6.67
2018-07-27T15:16:07.597Z,7.13
2018-07-27T15:20:50.920Z,7.90
2018-07-27T15:25:34.662Z,7.77
2018-07-27T15:30:18.197Z,6.57
2018-07-27T15:35:05.605Z,7.10
2018-07-27T15:39:49.274Z,7.20
2018-07-27T15:44:33.114Z,7.37
2018-07-27T15:49:16.696Z,5.80
2018-07-27T15:54:00.366Z,5.60
2018-07-27T15:58:43.791Z,6.03
2018-07-27T16:03:27.143Z,4.73
2018-07-27T16:08:10.958Z,4.87
2018-07-27T16:12:54.555Z,4.30
2018-07-27T16:17:41.266Z,5.37
2018-07-27T16:22:24.767Z,4.10
2018-07-27T16:27:08.553Z,4.90
2018-07-27T16:31:52.176Z,4.50
2018-07-27T16:36:43.595Z,4.67
2018-07-27T16:41:27.349Z,4.40
2018-07-27T16:46:11.701Z,4.70
2018-07-27T16:50:55.560Z,4.63
2018-07-27T16:55:39.582Z,5.27
2018-07-27T17:00:25.307Z,5.80
2018-07-27T17:05:10.369Z,5.23
2018-07-27T17:09:53.868Z,5.70
2018-07-27T17:14:38.656Z,5.63
2018-07-27T17:19:22.199Z,10.00
2018-07-27T17:24:11.049Z,10.13
2018-07-27T17:28:54.614Z,8.17
2018-07-27T17:33:38.263Z,5.60
2018-07-27T17:38:21.815Z,7.37
2018-07-27T17:43:05.428Z,7.90
2018-07-27T17:47:49.104Z,7.27
2018-07-27T17:52:32.848Z,7.90
2018-07-27T17:57:19.745Z,8.93
2018-07-27T18:02:06.475Z,6.57
2018-07-27T18:06:54.218Z,7.23
2018-07-27T18:11:39.510Z,6.23
2018-07-27T18:16:23.276Z,6.20
2018-07-27T18:21:07.128Z,5.60
2018-07-27T18:25:50.811Z,5.57
2018-07-27T18:30:35.192Z,6.77
2018-07-27T18:35:18.872Z,6.80
2018-07-27T18:40:03.265Z,6.70
2018-07-27T18:44:51.344Z,6.90
2018-07-27T18:49:34.949Z,7.00
2018-07-27T18:54:22.619Z,7.13
2018-07-27T18:59:06.337Z,5.90
2018-07-27T19:03:50.132Z,5.67
2018-07-27T19:08:33.785Z,5.53
2018-07-27T19:13:17.228Z,5.83
2018-07-27T19:18:00.745Z,5.23
2018-07-27T19:22:44.419Z,5.53
2018-07-27T19:27:27.973Z,6.07
2018-07-27T19:32:11.779Z,5.57
2018-07-27T19:36:56.572Z,5.80
2018-07-27T19:41:40.676Z,5.53
2018-07-27T19:46:24.429Z,6.23
2018-07-27T19:51:08.914Z,5.73
2018-07-27T19:55:55.600Z,6.70
2018-07-27T20:00:39.384Z,6.97
2018-07-27T20:05:23.075Z,7.67
2018-07-27T20:10:07.179Z,7.40
2018-07-27T20:14:50.968Z,8.10
2018-07-27T20:19:34.603Z,7.33
2018-07-27T20:24:18.431Z,9.07
2018-07-27T20:29:02.028Z,8.73
2018-07-27T20:33:46.230Z,8.93
2018-07-27T20:38:30.420Z,8.60
2018-07-27T20:43:14.116Z,8.20
2018-07-27T20:47:58.910Z,7.73
2018-07-27T20:52:42.599Z,7.47
2018-07-27T20:57:29.652Z,6.90
2018-07-27T21:02:13.306Z,6.80
2018-07-27T21:06:56.920Z,6.30
2018-07-27T21:11:41.528Z,6.60
2018-07-27T21:16:26.389Z,6.97
2018-07-27T21:21:10.030Z,8.17
2018-07-27T21:25:57.447Z,7.47
2018-07-27T21:30:41.093Z,5.90
2018-07-27T21:35:25.612Z,6.70
2018-07-27T21:40:09.126Z,8.13
2018-07-27T21:44:52.869Z,6.77
2018-07-27T21:49:36.509Z,7.73
2018-07-27T21:54:20.165Z,7.17
2018-07-27T21:59:03.825Z,7.77
2018-07-27T22:03:48.480Z,7.53
2018-07-27T22:08:32.146Z,7.23
2018-07-27T22:13:15.797Z,7.47
2018-07-27T22:17:59.241Z,8.43
2018-07-27T22:22:42.902Z,7.63
2018-07-27T22:27:29.470Z,7.60
2018-07-27T22:32:13.034Z,7.40
2018-07-27T22:36:57.068Z,7.50
2018-07-27T22:41:40.657Z,7.50
2018-07-27T22:46:24.405Z,7.63
2018-07-27T22:51:08.239Z,7.50
2018-07-27T22:55:51.945Z,8.23
2018-07-27T23:00:35.599Z,8.53
2018-07-27T23:05:22.550Z,7.63
2018-07-27T23:10:08.299Z,7.57
2018-07-27T23:14:51.891Z,8.43
2018-07-27T23:19:35.423Z,8.30
2018-07-27T23:24:19.107Z,7.63
2018-07-27T23:29:02.609Z,7.40
2018-07-27T23:33:47.266Z,8.43
2018-07-27T23:38:30.881Z,9.43
2018-07-27T23:43:14.564Z,7.77
2018-07-27T23:47:58.193Z,8.50
2018-07-27T23:52:41.827Z,10.23
2018-07-27T23:57:28.668Z,8.37
